Reese River Valley, Nevada Weather observations

Data are for 10 minute period ending at time listed.
 Day   Time   Solar   Ave.   Ave.  Ave.  Vector  Max.   Baro.   Total    
  of    of     Rad.   Air    Rel.  Wind   Wind   Wind  Press.  Precip.   
Year   Day            Temp.  Hum.  Speed  Dir.   Gust                    
2016   (PST)  Kw/m2    F      %     mph   deg.    mph    mb.     in.     
-------------------------------------------------------------------------
 241    1:30   0.00   44.7    35    6.8   200     9.1   818.2    0.00 
 241    1:40   0.00   43.5    37    6.2   211     7.5   818.3    0.00 
 241    1:50   0.00   42.6    42    7.3   228    10.4   818.3    0.00 
 241    2:00   0.00   43.7    41    8.2   231    10.0   818.3    0.00 
 241    2:10   0.00   43.9    41    7.2   219     9.4   818.3    0.00 
 241    2:20   0.00   44.1    38    5.9   198     8.1   818.4    0.00 
 241    2:30   0.00   44.2    33    5.5   185     7.8   818.4    0.00 
 241    2:40   0.00   44.3    38    6.8   208     8.4   818.4    0.00 
 241    2:50   0.00   43.8    42    6.7   212     8.4   818.4    0.00 
 241    3:00   0.00   42.8    42    5.5   197     7.2   818.5    0.00 
 241    3:10   0.00   42.4    43    6.4   210     8.4   818.5    0.00 
 241    3:20   0.00   41.6    45    5.5   203     7.2   818.6    0.00 
 241    3:30   0.00   41.3    47    5.6   204     7.8   818.6    0.00 
 241    3:40   0.00   41.5    48    6.7   214     8.7   818.6    0.00 
 241    3:50   0.00   42.5    48    5.9   215     8.2   818.6    0.00 
 241    4:00   0.00   42.6    49    6.8   220     8.8   818.7    0.00 
 241    4:10   0.00   41.8    53    5.8   217     7.7   818.8    0.00 
 241    4:20   0.00   41.3    53    6.2   205     8.1   818.9    0.00 
 241    4:30   0.00   41.4    49    5.7   202     7.1   818.9    0.00 
 241    4:40   0.00   41.4    51    7.0   216     8.9   818.9    0.00 
 241    4:50   0.00   41.1    51    7.1   228     9.7   818.9    0.00 
 241    5:00   0.00   40.3    50    5.2   207     8.2   819.0    0.00 
 241    5:10   0.00   39.8    52    6.4   219     8.7   819.1    0.00 
 241    5:20   0.01   40.1    53    5.6   217     7.8   819.2    0.00 
 241    5:30   0.01   40.7    51    4.9   210     7.5   819.4    0.00 
 241    5:40   0.01   41.2    51    6.7   225     9.6   819.5    0.00 
 241    5:50   0.02   41.3    51    7.4   237     8.9   819.6    0.00 
 241    6:00   0.07   41.9    51    6.8   229     9.2   819.6    0.00 
 241    6:10   0.10   44.0    49    6.8   231     8.1   819.7    0.00 
 241    6:20   0.13   47.6    44    7.9   229    12.4   819.7    0.00 
 241    6:30   0.17   50.7    38   10.1   232    14.0   819.8    0.00 
 241    6:40   0.20   52.4    36   11.0   231    14.5   819.8    0.00 
 241    6:50   0.23   54.6    35   10.0   233    13.2   819.8    0.00 
 241    7:00   0.27   56.9    32    9.8   230    13.6   819.9    0.00 
 241    7:10   0.31   59.3    30    9.1   230    12.0   820.2    0.00 
 241    7:20   0.34   61.4    29    8.8   231    11.2   820.3    0.00 
 241    7:30   0.38   63.2    27    8.5   234    11.8   820.4    0.00 
 241    7:40   0.41   65.3    27    7.8   234    11.7   820.5    0.00 
 241    7:50   0.44   67.2    27    6.4   235     9.6   820.5    0.00 
 241    8:00   0.48   69.1    24    6.8   231     9.3   820.6    0.00 
 241    8:10   0.51   71.0    22    6.0   231     8.5   820.6    0.00 
 241    8:20   0.54   72.9    21    5.4   235     8.3   820.7    0.00 
 241    8:30   0.57   73.8    21    5.1   259     7.2   820.7    0.00 
 241    8:40   0.60   76.1    15    1.6   237     4.3   820.7    0.00 
 241    8:50   0.63   77.8    16    1.3   328     2.7   820.7    0.00 
 241    9:00   0.66   78.7    16    1.2   357     3.0   820.7    0.00 
 241    9:10   0.69   78.8    21    1.4    21     3.7   820.7    0.00 
 241    9:20   0.72   80.2    14    0.9   147     2.3   820.6    0.00 
 241    9:30   0.74   79.8    18    2.0    51     4.3   820.6    0.00 
 241    9:40   0.77   80.0    15    2.1   104     4.5   820.5    0.00 
 241    9:50   0.79   79.6    18    2.2    52     3.5   820.4    0.00 
 241   10:00   0.81   79.3    19    4.1   352     9.2   820.4    0.00 
 241   10:10   0.84   77.7    23    3.8    44     8.3   820.4    0.00 
 241   10:20   0.85   80.0    17    2.2    51     7.3   820.4    0.00 
 241   10:30   0.87   79.9    18    3.9     5     6.9   820.3    0.00 
 241   10:40   0.88   79.9    20    4.0    58     9.6   820.2    0.00 
 241   10:50   0.90   79.4    23    6.0    64    11.8   820.1    0.00 
 241   11:00   0.91   78.0    26    4.1    51     8.1   820.1    0.00 
 241   11:10   0.91   79.7    20    4.3    25    10.4   820.1    0.00 
 241   11:20   0.93   79.6    24    4.3    42     8.5   820.1    0.00 
 241   11:30   0.93   79.1    21    5.7    30     9.9   820.0    0.00 
 241   11:40   0.94   79.4    23    6.3    81    10.9   820.0    0.00 
 241   11:50   0.94   77.9    28    6.8    66    11.6   820.0    0.00 
 241   12:00   0.94   78.3    24    5.4    60     9.9   820.0    0.00 
 241   12:10   0.94   81.3    17    2.8    69     6.3   820.0    0.00 
 241   12:20   0.94   82.9    17    4.6   113     9.2   819.9    0.00 
 241   12:30   0.94   83.5    16    5.0   106     9.0   819.8    0.00 
 241   12:40   0.92   81.1    23    4.8    50     9.1   819.7    0.00 
 241   12:50   0.92   81.0    16    6.2   319    10.2   819.6    0.00 
 241   13:00   0.91   83.7    11    2.4   226     7.5   819.5    0.00 
 241   13:10   0.89   86.5    13    2.1    17     5.8   819.3    0.00 
 241   13:20   0.87   84.8    16    2.4    50     5.1   819.2    0.00 
 241   13:30   0.86   83.8    16    4.8    96     7.8   819.1    0.00 
 241   13:40   0.86   83.4    15    2.5   105     6.1   819.0    0.00 
 241   13:50   0.83   87.0    11    4.3   196     8.4   818.9    0.00 
 241   14:00   0.81   86.1    15    4.7     5    10.4   818.8    0.00 
 241   14:10   0.78   83.6    14    5.4   321    12.9   818.8    0.00 
 241   14:20   0.70   82.9    14    6.8   330    11.5   818.6    0.00 
 241   14:30   0.69   83.8    15    6.3   297    14.2   818.5    0.00 
 241   14:40   0.70   83.7    14    7.6   261    16.1   818.4    0.00 
 241   14:50   0.67   83.5    15    6.3   305    11.4   818.4    0.00 
 241   15:00   0.64   83.3    16    7.2   314    13.2   818.4    0.00 
 241   15:10   0.61   82.7    15    6.2   314    11.2   818.4    0.00 
 241   15:20   0.58   85.2    12    3.7   217    10.8   818.4    0.00 
 241   15:30   0.45   85.7    13    3.3   234     7.2   818.3    0.00 
 241   15:40   0.24   83.8    14    4.7   318    10.3   818.3    0.00 
 241   15:50   0.26   81.2    14    6.7   307    12.9   818.2    0.00 
 241   16:00   0.34   82.5    13    5.0   254    11.1   818.3    0.00 
 241   16:10   0.41   83.7    13    4.1   296    10.6   818.3    0.00 
 241   16:20   0.37   83.8    13    5.7   332    13.6   818.3    0.00 
 241   16:30   0.34   82.1    15    6.1   360    14.5   818.3    0.00 
 241   16:40   0.30   81.3    17    6.1   354    13.4   818.3    0.00 
 241   16:50   0.26   80.9    15    5.9   330    12.4   818.4    0.00 
 241   17:00   0.23   82.5    13    4.4   322    10.7   818.4    0.00 
 241   17:10   0.20   80.6    15    7.1   338    11.1   818.5    0.00 
 241   17:20   0.17   78.7    18    6.4   296     9.5   818.5    0.00 
 241   17:30   0.14   78.5    16    6.6   318    10.4   818.5    0.00 
 241   17:40   0.11   79.5    14    5.6   336     8.8   818.5    0.00 
 241   17:50   0.08   78.9    15    4.9   322     6.7   818.6    0.00 
 241   18:00   0.06   75.7    19    4.1   317     5.4   818.6    0.00 
 241   18:10   0.02   75.0    17    5.0   342     8.5   818.7    0.00 
 241   18:20   0.01   74.4    17    5.5   328     8.8   818.8    0.00 
 241   18:30   0.01   72.5    18    4.7   337     6.4   819.0    0.00 
 241   18:40   0.00   71.3    21    4.6    19     7.5   819.2    0.00 
 241   18:50   0.00   65.1    30    5.6    66     7.9   819.5    0.00 
 241   19:00   0.00   67.1    22    2.4    42     4.5   819.6    0.00 
 241   19:10   0.00   68.0    21    2.2    64     4.7   819.8    0.00 
 241   19:20   0.00   70.3    18    4.7   352     5.8   819.9    0.00 
 241   19:30   0.00   67.8    23    2.0    49     4.4   820.0    0.00 
 241   19:40   0.00   64.2    26    2.4   122     3.6   820.1    0.00 
 241   19:50   0.00   60.0    23    3.3   157     4.7   820.3    0.00 
 241   20:00   0.00   57.5    27    4.4   154     5.4   820.3    0.00 
 241   20:10   0.00   56.2    33    4.0   149     5.1   820.2    0.00 
 241   20:20   0.00   56.9    30    4.2   149     5.6   820.2    0.00 
 241   20:30   0.00   56.3    33    4.6   154     5.8   820.2    0.00 
 241   20:40   0.00   56.7    25    4.5   165     5.6   820.1    0.00 
 241   20:50   0.00   55.4    27    5.8   173     7.9   820.2    0.00 
 241   21:00   0.00   56.4    25    5.8   163     7.8   820.2    0.00 
 241   21:10   0.00   56.6    24    6.3   169     8.1   820.2    0.00 
 241   21:20   0.00   56.6    24    6.2   162     8.0   820.2    0.00 
 241   21:30   0.00   55.2    30    4.7   213     7.9   820.2    0.00 
 241   21:40   0.00   51.5    37    4.9   205     5.5   820.2    0.00 
 241   21:50   0.00   48.8    44    4.6   207     6.4   820.2    0.00 
 241   22:00   0.00   48.4    44    5.0   213     6.4   820.2    0.00 
 241   22:10   0.00   47.7    44    4.8   208     6.3   820.2    0.00 
 241   22:20   0.00   50.3    38    5.9   214     7.1   820.1    0.00 
 241   22:30   0.00   51.2    36    5.1   193     6.6   820.1    0.00 
 241   22:40   0.00   50.6    38    5.4   208     7.1   820.1    0.00 
 241   22:50   0.00   48.8    41    6.1   228     7.5   820.2    0.00 
 241   23:00   0.00   49.6    39    7.1   236     9.0   820.1    0.00 
 241   23:10   0.00   50.8    35    6.7   212     9.2   820.1    0.00 
 241   23:20   0.00   50.0    33    5.5   177     7.3   820.1    0.00 
 241   23:30   0.00   50.8    30    6.6   165     8.7   820.1    0.00 
 241   23:40   0.00   52.0    31    6.5   186     9.1   820.2    0.00 
 241   23:50   0.00   48.7    37    5.8   212     7.4   820.3    0.00 
 242    0:00   0.00   47.4    36    5.9   191     8.1   820.2    0.00 
 242    0:10   0.00   47.4    35    6.2   188     9.8   820.1    0.00 
 242    0:20   0.00   46.8    37    6.0   198     7.4   820.1    0.00 
 242    0:30   0.00   46.4    40    6.0   198     7.5   820.1    0.00 
 242    0:40   0.00   46.6    40    5.9   215     8.3   820.1    0.00 
 242    0:50   0.00   45.9    42    6.7   224     8.6   820.1    0.00 
 242    1:00   0.00   45.7    42    6.0   216     7.7   820.1    0.00 
 242    1:10   0.00   45.1    41    6.4   201     8.0   820.2    0.00 
 242    1:20   0.00   45.4    41    6.0   202     8.1   820.2    0.00 

Return to Reese River Valley graphs page.


Western Regional Climate Center,wrcc@dri.edu